Los Angeles, California
Traffic Map
Current Weather Conditions
Los Angeles, California
Overcast
Overcast
65°
Feels Like: 65°
Wind Chill: 65° Ceiling: 1100
Heat Index: 65° Visibility: 10mi
Dew Point: 59° Wind: 0mph
Humidity: 81% Direction: ° ()
Pressure: 30in Gusts: 0mph
Raw Report DataKCQT 070447Z AUTO 00000KT 10SM OVC011 18/15 A3000 RMK AO2 SLP156 T01830150
Traffic Incident Summary
Active as of:
Severity:
Category:
InformationThere was an issue retrieving the traffic information for this location. Please try a different location or try again shortly.
Advertisements
Track Severe Weather on mobile